createdAt,value
2018-11-26T00:01:54.562Z,64.07
2018-11-26T00:04:28.570Z,50.53
2018-11-26T00:07:03.688Z,59.67
2018-11-26T00:09:37.643Z,67.80
2018-11-26T00:12:11.644Z,59.53
2018-11-26T00:14:45.458Z,68.20
2018-11-26T00:17:19.465Z,72.80
2018-11-26T00:19:53.500Z,58.10
2018-11-26T00:22:27.447Z,76.20
2018-11-26T00:25:01.464Z,62.23
2018-11-26T00:27:35.493Z,60.43
2018-11-26T00:30:09.538Z,60.97
2018-11-26T00:32:43.456Z,63.30
2018-11-26T00:35:17.522Z,83.53
2018-11-26T00:37:51.341Z,64.20
2018-11-26T00:40:25.198Z,62.37
2018-11-26T00:42:59.178Z,71.37
2018-11-26T00:45:33.096Z,58.60
2018-11-26T00:48:07.143Z,67.97
2018-11-26T00:50:41.171Z,64.77
2018-11-26T00:53:15.174Z,67.27
2018-11-26T00:55:49.203Z,72.13
2018-11-26T00:58:23.214Z,67.37
2018-11-26T01:00:57.322Z,64.83
2018-11-26T01:03:31.413Z,67.93
2018-11-26T01:06:05.384Z,79.40
2018-11-26T01:08:39.251Z,73.40
2018-11-26T01:11:13.231Z,68.40
2018-11-26T01:13:47.198Z,63.30
2018-11-26T01:16:21.055Z,76.63
2018-11-26T01:18:55.014Z,82.87
2018-11-26T01:21:28.998Z,72.73
2018-11-26T01:24:04.134Z,89.17
2018-11-26T01:26:37.998Z,81.37
2018-11-26T01:29:12.024Z,74.30
2018-11-26T01:31:46.102Z,83.40
2018-11-26T01:34:20.010Z,90.03
2018-11-26T01:36:53.911Z,74.20
2018-11-26T01:39:27.914Z,81.93
2018-11-26T01:42:01.872Z,67.63
2018-11-26T01:44:35.906Z,82.53
2018-11-26T01:47:09.850Z,80.90
2018-11-26T01:49:44.944Z,58.83
2018-11-26T01:52:18.949Z,64.87
2018-11-26T01:54:52.941Z,64.70
2018-11-26T01:57:26.953Z,54.97
2018-11-26T02:00:02.026Z,61.43
2018-11-26T02:02:36.033Z,53.50
2018-11-26T02:05:10.489Z,53.43
2018-11-26T02:07:44.324Z,46.47
2018-11-26T02:10:18.944Z,43.20
2018-11-26T02:12:52.959Z,47.27
2018-11-26T02:15:32.078Z,53.67
2018-11-26T02:18:06.574Z,48.97
2018-11-26T02:20:40.652Z,50.20
2018-11-26T02:23:14.554Z,45.30
2018-11-26T02:25:48.662Z,54.23
2018-11-26T02:28:22.750Z,51.93
2018-11-26T02:30:56.697Z,47.50
2018-11-26T02:33:30.754Z,53.60
2018-11-26T02:36:05.114Z,63.70
2018-11-26T02:38:39.092Z,53.20
2018-11-26T02:41:13.104Z,47.97
2018-11-26T02:43:47.082Z,39.43
2018-11-26T02:46:21.080Z,39.70
2018-11-26T02:48:55.165Z,44.67
2018-11-26T02:51:29.089Z,34.57
2018-11-26T02:54:03.070Z,39.40
2018-11-26T02:56:37.094Z,34.17
2018-11-26T02:59:11.082Z,41.50
2018-11-26T03:01:45.076Z,46.60
2018-11-26T03:04:19.086Z,45.23
2018-11-26T03:06:52.962Z,40.47
2018-11-26T03:09:26.999Z,32.23
2018-11-26T03:12:00.949Z,37.43
2018-11-26T03:14:34.993Z,35.03
2018-11-26T03:17:08.884Z,35.27
2018-11-26T03:19:42.955Z,34.97
2018-11-26T03:22:17.128Z,41.43
2018-11-26T03:24:51.151Z,43.63
2018-11-26T03:27:25.167Z,34.37
2018-11-26T03:29:59.161Z,41.20
2018-11-26T03:32:33.174Z,32.63
2018-11-26T03:35:07.266Z,30.30
2018-11-26T03:37:41.191Z,38.17
2018-11-26T03:40:15.214Z,33.93
2018-11-26T03:42:49.184Z,31.30
2018-11-26T03:45:23.246Z,42.00
2018-11-26T03:47:57.195Z,30.90
2018-11-26T03:50:31.230Z,33.83
2018-11-26T03:53:05.569Z,31.63
2018-11-26T03:55:39.555Z,35.33
2018-11-26T03:58:13.594Z,45.27
2018-11-26T04:00:52.109Z,31.77
2018-11-26T04:03:25.927Z,39.03
2018-11-26T04:05:59.929Z,35.93
2018-11-26T04:08:33.986Z,38.23
2018-11-26T04:11:07.858Z,36.30
2018-11-26T04:13:41.914Z,38.97
2018-11-26T04:16:15.894Z,39.13
2018-11-26T04:18:49.888Z,39.10
2018-11-26T04:21:23.854Z,42.80
2018-11-26T04:23:57.762Z,40.60
2018-11-26T04:26:31.733Z,42.63
2018-11-26T04:29:05.692Z,43.67
2018-11-26T04:31:39.625Z,52.23
2018-11-26T04:34:13.557Z,57.27
2018-11-26T04:36:47.496Z,47.70
2018-11-26T04:39:21.343Z,48.87
2018-11-26T04:41:55.217Z,51.23
2018-11-26T04:44:29.213Z,42.63
2018-11-26T04:47:03.077Z,44.37
2018-11-26T04:49:37.033Z,39.80
2018-11-26T04:52:11.116Z,45.17
2018-11-26T04:54:44.938Z,37.83
2018-11-26T04:57:18.918Z,40.07
2018-11-26T04:59:52.897Z,44.57
2018-11-26T05:02:26.722Z,40.50
2018-11-26T05:05:00.701Z,39.90
2018-11-26T05:07:34.660Z,32.97
2018-11-26T05:10:10.092Z,33.23
2018-11-26T05:12:44.030Z,33.87
2018-11-26T05:15:18.031Z,33.07
2018-11-26T05:17:52.067Z,34.77
2018-11-26T05:20:26.047Z,33.00
2018-11-26T05:22:59.952Z,34.87
2018-11-26T05:25:34.045Z,35.20
2018-11-26T05:28:08.063Z,36.20
2018-11-26T05:30:42.062Z,41.40
2018-11-26T05:33:16.011Z,38.90
2018-11-26T05:35:50.050Z,34.27
2018-11-26T05:38:23.973Z,38.40
2018-11-26T05:40:57.850Z,42.20
2018-11-26T05:43:31.734Z,35.10
2018-11-26T05:46:05.622Z,36.60
2018-11-26T05:48:39.730Z,33.20
2018-11-26T05:51:13.779Z,34.40
2018-11-26T05:53:47.628Z,39.83
2018-11-26T05:56:21.682Z,35.77
2018-11-26T05:58:55.664Z,41.43
2018-11-26T06:01:29.551Z,40.83
2018-11-26T06:04:03.566Z,31.90
2018-11-26T06:06:37.540Z,44.70
2018-11-26T06:09:11.627Z,33.30
2018-11-26T06:11:45.639Z,42.73
2018-11-26T06:14:19.701Z,39.87
2018-11-26T06:16:53.933Z,32.53
2018-11-26T06:19:27.642Z,27.97
2018-11-26T06:22:01.591Z,32.83
2018-11-26T06:24:35.697Z,30.17
2018-11-26T06:27:09.699Z,36.50
2018-11-26T06:29:43.554Z,28.90
2018-11-26T06:32:17.787Z,28.83
2018-11-26T06:34:52.226Z,25.80
2018-11-26T06:37:26.799Z,34.57
2018-11-26T06:40:00.880Z,24.43
2018-11-26T06:42:35.117Z,21.97
2018-11-26T06:45:11.318Z,33.23
2018-11-26T06:47:45.617Z,26.03
2018-11-26T06:50:20.093Z,31.30
2018-11-26T06:55:57.181Z,37.53
2018-11-26T06:58:31.436Z,31.83
2018-11-26T07:01:06.272Z,23.93
2018-11-26T07:03:40.592Z,32.77
2018-11-26T07:06:15.411Z,29.03
2018-11-26T07:08:49.687Z,29.70
2018-11-26T07:11:24.084Z,31.93
2018-11-26T07:13:58.184Z,32.70
2018-11-26T07:16:33.298Z,38.23
2018-11-26T07:19:08.007Z,27.70
2018-11-26T07:21:42.925Z,34.57
2018-11-26T07:24:17.184Z,29.67
2018-11-26T07:26:52.548Z,29.43
2018-11-26T07:29:26.768Z,44.90
2018-11-26T07:32:01.678Z,33.10
2018-11-26T07:34:40.315Z,38.80
2018-11-26T07:37:14.375Z,39.20
2018-11-26T07:39:49.164Z,33.47
2018-11-26T07:42:23.455Z,35.77
2018-11-26T07:44:57.720Z,38.37
2018-11-26T07:47:32.534Z,32.37
2018-11-26T07:50:14.893Z,46.67
2018-11-26T07:52:49.201Z,42.27
2018-11-26T07:55:24.052Z,46.93
2018-11-26T07:57:58.579Z,50.93
2018-11-26T08:00:33.424Z,40.37
2018-11-26T08:03:15.877Z,44.83
2018-11-26T08:05:50.711Z,29.53
2018-11-26T08:08:26.315Z,41.20
2018-11-26T08:11:02.579Z,38.73
2018-11-26T08:13:37.876Z,39.03
2018-11-26T08:16:12.907Z,37.40
2018-11-26T08:18:48.036Z,43.90
2018-11-26T08:21:22.454Z,39.10
2018-11-26T08:23:57.966Z,37.17
2018-11-26T08:26:32.581Z,25.50
2018-11-26T08:29:06.933Z,30.37
2018-11-26T08:31:43.811Z,35.33
2018-11-26T08:34:18.573Z,32.37
2018-11-26T08:36:58.935Z,23.43
2018-11-26T08:39:37.584Z,21.03
2018-11-26T08:42:17.117Z,28.37
2018-11-26T08:44:56.769Z,25.43
2018-11-26T08:47:39.341Z,28.90
2018-11-26T08:50:16.518Z,23.90
2018-11-26T08:52:51.702Z,25.50
2018-11-26T08:55:26.027Z,30.57
2018-11-26T09:00:44.210Z,22.10
2018-11-26T09:03:23.463Z,28.67
2018-11-26T09:06:01.230Z,29.60
2018-11-26T09:08:40.777Z,24.80
2018-11-26T09:11:21.737Z,26.73
2018-11-26T09:13:55.931Z,26.00
2018-11-26T09:16:30.590Z,35.53
2018-11-26T09:19:05.318Z,36.70
2018-11-26T09:21:40.454Z,30.23
2018-11-26T09:24:15.193Z,28.87
2018-11-26T09:26:50.351Z,39.20
2018-11-26T09:29:25.011Z,36.90
2018-11-26T09:31:59.570Z,38.40
2018-11-26T09:34:36.483Z,46.90
2018-11-26T09:37:12.305Z,31.97
2018-11-26T09:39:47.044Z,46.90
2018-11-26T09:42:21.537Z,37.33
2018-11-26T09:44:58.555Z,38.17
2018-11-26T09:47:32.709Z,42.47
2018-11-26T09:50:11.660Z,40.93
2018-11-26T09:52:46.050Z,33.30
2018-11-26T09:55:20.399Z,27.07
2018-11-26T09:57:55.187Z,27.40
2018-11-26T10:00:29.482Z,29.77
2018-11-26T10:03:03.915Z,30.50
2018-11-26T10:05:38.093Z,29.23
2018-11-26T10:08:13.324Z,27.80
2018-11-26T10:10:47.571Z,27.27
2018-11-26T10:13:22.427Z,23.80
2018-11-26T10:15:57.008Z,25.27
2018-11-26T10:18:31.375Z,40.33
2018-11-26T10:21:05.556Z,29.40
2018-11-26T10:23:40.364Z,30.47
2018-11-26T10:26:15.075Z,25.50
2018-11-26T10:28:49.383Z,21.07
2018-11-26T10:31:24.568Z,26.30
2018-11-26T10:33:58.947Z,23.40
2018-11-26T10:36:33.733Z,27.40
2018-11-26T10:39:09.454Z,19.60
2018-11-26T10:41:43.884Z,22.07
2018-11-26T10:44:18.263Z,21.40
2018-11-26T10:46:54.968Z,16.23
2018-11-26T10:49:29.978Z,16.33
2018-11-26T10:52:05.521Z,13.83
2018-11-26T10:54:40.733Z,22.97
2018-11-26T10:57:16.192Z,15.27
2018-11-26T10:59:51.771Z,8.53
2018-11-26T11:02:31.949Z,9.47
2018-11-26T11:05:08.351Z,11.67
2018-11-26T11:07:42.744Z,12.47
2018-11-26T11:10:27.529Z,9.77
2018-11-26T11:15:48.806Z,11.20
2018-11-26T11:18:23.937Z,7.97
2018-11-26T11:21:08.013Z,12.63
2018-11-26T11:23:44.699Z,18.67
2018-11-26T11:26:25.099Z,10.37
2018-11-26T11:29:09.577Z,9.07
2018-11-26T12:10:36.759Z,8.67
2018-11-26T12:13:12.379Z,8.80
2018-11-26T12:15:48.932Z,7.63
2018-11-26T12:18:23.291Z,8.47
2018-11-26T12:20:58.900Z,14.03
2018-11-26T12:23:33.398Z,11.77
2018-11-26T12:26:08.821Z,12.67
2018-11-26T12:28:43.066Z,16.07
2018-11-26T12:31:17.571Z,8.70
2018-11-26T12:33:52.550Z,16.57
2018-11-26T12:36:26.979Z,13.07
2018-11-26T12:39:01.150Z,9.77
2018-11-26T12:41:35.340Z,9.20
2018-11-26T12:44:09.543Z,9.23
2018-11-26T12:46:43.666Z,13.03
2018-11-26T12:49:17.917Z,8.67
2018-11-26T12:51:52.100Z,25.90
2018-11-26T12:54:26.700Z,12.30
2018-11-26T12:57:00.903Z,12.07
2018-11-26T12:59:35.636Z,8.43
2018-11-26T13:02:09.975Z,5.83
2018-11-26T13:04:44.279Z,15.27
2018-11-26T13:07:19.548Z,32.83
2018-11-26T13:09:54.752Z,13.00
2018-11-26T13:12:28.880Z,11.47
2018-11-26T13:15:03.335Z,9.30
2018-11-26T13:17:38.062Z,6.00
2018-11-26T13:20:13.241Z,14.37
2018-11-26T13:22:48.014Z,7.73
2018-11-26T13:25:24.416Z,7.57
2018-11-26T13:27:59.659Z,13.83
2018-11-26T13:30:36.006Z,6.80
2018-11-26T13:33:10.999Z,8.60
2018-11-26T13:35:45.929Z,9.03
2018-11-26T13:38:19.946Z,9.23
2018-11-26T13:40:54.023Z,9.70
2018-11-26T13:43:29.148Z,6.87
2018-11-26T13:46:04.199Z,11.90
2018-11-26T13:48:39.107Z,10.33
2018-11-26T13:51:13.315Z,14.03
2018-11-26T13:53:47.949Z,16.27
2018-11-26T13:56:22.133Z,20.00
2018-11-26T13:58:57.029Z,7.27
2018-11-26T14:01:31.640Z,9.00
2018-11-26T14:04:07.092Z,9.47
2018-11-26T14:06:47.263Z,9.53
2018-11-26T14:09:26.946Z,8.70
2018-11-26T14:12:05.670Z,10.50
2018-11-26T14:14:41.650Z,12.43
2018-11-26T14:17:17.302Z,12.50
2018-11-26T14:19:55.382Z,9.30
2018-11-26T14:22:31.670Z,8.23
2018-11-26T14:25:09.684Z,11.47
2018-11-26T14:27:45.948Z,7.37
2018-11-26T14:30:22.041Z,11.73
2018-11-26T14:32:57.290Z,11.07
2018-11-26T14:35:32.513Z,13.07
2018-11-26T14:38:08.829Z,8.60
2018-11-26T14:40:50.423Z,8.40
2018-11-26T14:43:28.004Z,15.20
2018-11-26T14:46:04.839Z,12.93
2018-11-26T14:48:41.692Z,8.73
2018-11-26T14:51:22.785Z,10.70
2018-11-26T14:54:00.901Z,18.53
2018-11-26T14:56:37.473Z,10.87
2018-11-26T14:59:14.064Z,9.00
2018-11-26T15:01:55.021Z,10.03
2018-11-26T15:04:30.407Z,9.53
2018-11-26T15:07:07.088Z,9.07
2018-11-26T15:09:44.794Z,12.00
2018-11-26T15:12:24.243Z,12.83
2018-11-26T15:15:00.312Z,14.33
2018-11-26T15:19:41.348Z,16.20
2018-11-26T15:22:19.892Z,12.20
2018-11-26T15:24:55.231Z,13.13
2018-11-26T15:27:31.250Z,14.70
2018-11-26T15:30:10.177Z,20.43
2018-11-26T15:32:45.328Z,13.70
2018-11-26T15:35:21.382Z,14.17
2018-11-26T15:37:59.569Z,13.63
2018-11-26T15:40:36.247Z,14.60
2018-11-26T15:43:12.809Z,15.37
2018-11-26T15:45:49.740Z,19.90
2018-11-26T15:48:26.063Z,16.47
2018-11-26T15:51:02.747Z,19.30
2018-11-26T15:53:37.903Z,16.33
2018-11-26T15:56:13.031Z,15.30
2018-11-26T15:58:48.594Z,18.17
2018-11-26T16:01:25.293Z,19.90
2018-11-26T16:04:00.734Z,15.70
2018-11-26T16:06:35.854Z,20.67
2018-11-26T16:09:10.998Z,18.70
2018-11-26T16:11:45.971Z,16.80
2018-11-26T16:14:23.065Z,19.63
2018-11-26T16:16:58.724Z,19.30
2018-11-26T16:19:34.691Z,21.50
2018-11-26T16:22:10.458Z,20.67
2018-11-26T16:24:45.785Z,23.53
2018-11-26T16:27:21.670Z,12.93
2018-11-26T16:29:57.839Z,15.47
2018-11-26T16:35:36.593Z,18.60
2018-11-26T16:38:13.593Z,13.93
2018-11-26T16:40:49.151Z,17.80
2018-11-26T16:43:25.413Z,15.80
2018-11-26T16:46:01.185Z,17.67
2018-11-26T16:48:37.100Z,19.23
2018-11-26T16:51:12.412Z,14.53
2018-11-26T16:53:52.777Z,26.83
2018-11-26T16:56:27.926Z,16.50
2018-11-26T16:59:03.812Z,16.67
2018-11-26T17:01:38.942Z,15.50
2018-11-26T17:04:14.183Z,13.77
2018-11-26T17:06:52.400Z,18.50
2018-11-26T17:09:30.401Z,13.80
2018-11-26T17:12:08.429Z,17.10
2018-11-26T17:14:44.016Z,18.13
2018-11-26T17:17:19.338Z,19.83
2018-11-26T17:19:56.150Z,14.57
2018-11-26T17:22:33.218Z,16.63
2018-11-26T17:25:10.239Z,20.13
2018-11-26T17:27:45.694Z,18.93
2018-11-26T17:30:26.170Z,17.50
2018-11-26T17:33:05.720Z,15.67
2018-11-26T17:35:42.303Z,14.10
2018-11-26T17:38:17.515Z,16.30
2018-11-26T17:40:53.413Z,17.20
2018-11-26T17:43:29.586Z,14.43
2018-11-26T17:46:04.932Z,17.50
2018-11-26T17:48:39.845Z,25.10
2018-11-26T17:51:14.518Z,20.37
2018-11-26T17:53:52.022Z,20.33
2018-11-26T17:56:26.871Z,20.03
2018-11-26T17:59:03.444Z,20.70
2018-11-26T18:01:42.094Z,21.47
2018-11-26T18:04:17.837Z,21.27
2018-11-26T18:06:52.679Z,24.47
2018-11-26T18:09:28.659Z,21.80
2018-11-26T18:12:04.611Z,21.97
2018-11-26T18:14:40.631Z,26.73
2018-11-26T18:17:15.475Z,22.60
2018-11-26T18:19:51.691Z,21.07
2018-11-26T18:22:27.617Z,24.63
2018-11-26T18:25:03.068Z,22.53
2018-11-26T18:27:38.503Z,19.20
2018-11-26T18:30:18.892Z,20.97
2018-11-26T18:32:55.038Z,21.07
2018-11-26T18:35:31.323Z,21.77
2018-11-26T18:38:09.196Z,21.43
2018-11-26T18:40:46.344Z,19.03
2018-11-26T18:43:21.489Z,25.13
2018-11-26T18:45:57.348Z,20.20
2018-11-26T18:48:32.660Z,18.23
2018-11-26T18:51:08.160Z,24.67
2018-11-26T18:53:47.197Z,33.47
2018-11-26T18:56:22.961Z,21.07
2018-11-26T18:58:59.656Z,21.70
2018-11-26T19:01:36.737Z,20.80
2018-11-26T19:04:11.752Z,19.57
2018-11-26T19:06:46.661Z,19.63
2018-11-26T19:09:22.032Z,23.23
2018-11-26T19:11:57.873Z,19.60
2018-11-26T19:14:34.867Z,26.40
2018-11-26T19:17:11.083Z,22.33
2018-11-26T19:19:55.541Z,24.20
2018-11-26T19:22:32.468Z,27.10
2018-11-26T19:25:09.238Z,28.57
2018-11-26T19:27:43.836Z,33.97
2018-11-26T19:30:23.002Z,36.10
2018-11-26T19:32:55.053Z,22.30
2018-11-26T19:35:29.782Z,25.30
2018-11-26T19:38:06.165Z,26.47
2018-11-26T19:40:42.177Z,27.10
2018-11-26T19:43:17.965Z,27.80
2018-11-26T19:45:53.923Z,30.33
2018-11-26T19:48:31.404Z,31.13
2018-11-26T19:51:08.199Z,29.00
2018-11-26T19:53:44.780Z,30.30
2018-11-26T19:56:19.955Z,24.33
2018-11-26T19:58:54.739Z,28.00
2018-11-26T20:01:31.408Z,30.80
2018-11-26T20:04:13.109Z,30.00
2018-11-26T20:06:51.053Z,22.90
2018-11-26T20:09:26.479Z,27.30
2018-11-26T20:12:02.438Z,29.57
2018-11-26T20:14:38.685Z,26.73
2018-11-26T20:17:15.607Z,23.80
2018-11-26T20:19:51.472Z,29.70
2018-11-26T20:22:27.542Z,29.87
2018-11-26T20:25:03.432Z,26.43
2018-11-26T20:27:45.443Z,33.27
2018-11-26T20:30:24.147Z,29.57
2018-11-26T20:33:00.633Z,32.40
2018-11-26T20:35:37.620Z,25.60
2018-11-26T20:38:14.120Z,25.60
2018-11-26T20:40:49.365Z,26.60
2018-11-26T20:43:24.406Z,26.70
2018-11-26T20:46:00.483Z,28.60
2018-11-26T20:48:35.355Z,28.43
2018-11-26T20:51:11.755Z,24.80
2018-11-26T20:53:46.929Z,27.20
2018-11-26T20:56:30.167Z,32.10
2018-11-26T20:59:05.216Z,29.27
2018-11-26T21:01:40.874Z,26.90
2018-11-26T21:04:15.824Z,39.13
2018-11-26T21:06:52.395Z,28.67
2018-11-26T21:09:28.267Z,26.17
2018-11-26T21:12:03.187Z,25.47
2018-11-26T21:14:39.563Z,29.70
2018-11-26T21:17:14.221Z,33.73
2018-11-26T21:19:49.922Z,32.97
2018-11-26T21:22:25.652Z,34.03
2018-11-26T21:25:02.141Z,31.23
2018-11-26T21:27:36.959Z,33.37
2018-11-26T21:30:14.399Z,33.13
2018-11-26T21:32:49.958Z,39.67
2018-11-26T21:35:25.868Z,29.83
2018-11-26T21:38:00.723Z,35.73
2018-11-26T21:40:36.290Z,38.50
2018-11-26T21:43:11.745Z,37.47
2018-11-26T21:45:51.290Z,31.53
2018-11-26T21:48:26.214Z,37.03
2018-11-26T21:51:00.970Z,37.53
2018-11-26T21:53:35.880Z,44.13
2018-11-26T21:56:13.319Z,31.93
2018-11-26T21:58:48.211Z,29.43
2018-11-26T22:01:23.908Z,28.33
2018-11-26T22:03:59.687Z,36.00
2018-11-26T22:06:34.715Z,32.40
2018-11-26T22:09:11.464Z,36.70
2018-11-26T22:11:48.393Z,35.97
2018-11-26T22:14:22.898Z,34.33
2018-11-26T22:16:57.638Z,28.37
2018-11-26T22:19:32.408Z,34.90
2018-11-26T22:22:08.682Z,35.40
2018-11-26T22:24:44.354Z,39.13
2018-11-26T22:27:19.359Z,37.77
2018-11-26T22:29:54.833Z,37.10
2018-11-26T22:32:31.500Z,42.63
2018-11-26T22:35:08.513Z,37.40
2018-11-26T22:37:44.582Z,33.10
2018-11-26T22:40:24.005Z,30.93
2018-11-26T22:43:01.326Z,33.07
2018-11-26T22:45:36.011Z,32.50
2018-11-26T22:48:14.387Z,33.07
2018-11-26T22:50:50.074Z,30.23
2018-11-26T22:53:25.088Z,29.47
2018-11-26T22:56:00.134Z,35.20
2018-11-26T22:58:34.685Z,34.47
2018-11-26T23:01:10.413Z,26.13
2018-11-26T23:03:45.172Z,32.47
2018-11-26T23:06:19.677Z,32.17
2018-11-26T23:08:55.457Z,35.80
2018-11-26T23:11:30.418Z,34.30
2018-11-26T23:14:05.052Z,36.73
2018-11-26T23:16:39.778Z,26.70
2018-11-26T23:19:13.892Z,33.03
2018-11-26T23:21:47.902Z,31.87
2018-11-26T23:24:22.206Z,31.00
2018-11-26T23:26:55.649Z,31.83
2018-11-26T23:29:29.582Z,34.33
2018-11-26T23:32:05.262Z,26.83
2018-11-26T23:34:39.276Z,30.13
2018-11-26T23:37:13.288Z,32.87
2018-11-26T23:39:47.137Z,30.77
2018-11-26T23:42:21.193Z,28.73
2018-11-26T23:44:55.404Z,28.73
2018-11-26T23:47:29.606Z,27.97
2018-11-26T23:50:03.943Z,30.60
2018-11-26T23:52:38.920Z,31.30
2018-11-26T23:55:14.537Z,30.80
2018-11-26T23:57:48.647Z,36.17
